sensor_id;sensor_type;location;lat;lon;timestamp;pressure;altitude;pressure_sealevel;temperature;humidity
19128;BME280;9696;53.686;10.094;2023-03-20T00:02:26;101430.75;;;8.85;100.00
19128;BME280;9696;53.686;10.094;2023-03-20T00:04:57;101428.97;;;8.86;100.00
19128;BME280;9696;53.686;10.094;2023-03-20T00:07:26;101431.19;;;8.79;100.00
19128;BME280;9696;53.686;10.094;2023-03-20T00:09:55;101428.44;;;8.93;100.00
19128;BME280;9696;53.686;10.094;2023-03-20T00:12:25;101433.91;;;8.90;100.00
19128;BME280;9696;53.686;10.094;2023-03-20T00:14:54;101424.25;;;8.78;100.00
19128;BME280;9696;53.686;10.094;2023-03-20T00:17:23;101431.38;;;9.02;100.00
19128;BME280;9696;53.686;10.094;2023-03-20T00:19:52;101430.03;;;8.83;100.00
19128;BME280;9696;53.686;10.094;2023-03-20T00:22:22;101425.22;;;9.03;100.00
19128;BME280;9696;53.686;10.094;2023-03-20T00:24:51;101430.34;;;9.04;100.00
19128;BME280;9696;53.686;10.094;2023-03-20T00:27:21;101430.84;;;9.09;100.00
19128;BME280;9696;53.686;10.094;2023-03-20T00:29:50;101426.25;;;9.00;100.00
19128;BME280;9696;53.686;10.094;2023-03-20T00:32:19;101428.34;;;9.08;100.00
19128;BME280;9696;53.686;10.094;2023-03-20T00:34:48;101425.28;;;9.01;100.00
19128;BME280;9696;53.686;10.094;2023-03-20T00:37:17;101423.13;;;9.08;100.00
19128;BME280;9696;53.686;10.094;2023-03-20T00:39:47;101433.06;;;9.03;100.00
19128;BME280;9696;53.686;10.094;2023-03-20T00:42:20;101424.91;;;9.07;100.00
19128;BME280;9696;53.686;10.094;2023-03-20T00:44:51;101427.81;;;9.15;100.00
19128;BME280;9696;53.686;10.094;2023-03-20T00:47:24;101427.50;;;9.20;100.00
19128;BME280;9696;53.686;10.094;2023-03-20T00:49:54;101425.22;;;9.03;100.00
19128;BME280;9696;53.686;10.094;2023-03-20T00:52:24;101424.25;;;9.16;100.00
19128;BME280;9696;53.686;10.094;2023-03-20T00:54:55;101416.19;;;9.07;100.00
19128;BME280;9696;53.686;10.094;2023-03-20T00:57:26;101414.53;;;9.06;100.00
19128;BME280;9696;53.686;10.094;2023-03-20T01:00:00;101415.44;;;9.17;100.00
19128;BME280;9696;53.686;10.094;2023-03-20T01:02:32;101417.97;;;9.06;100.00
19128;BME280;9696;53.686;10.094;2023-03-20T01:05:02;101426.88;;;8.91;100.00
19128;BME280;9696;53.686;10.094;2023-03-20T01:07:32;101425.13;;;9.04;100.00
19128;BME280;9696;53.686;10.094;2023-03-20T01:10:05;101419.34;;;8.99;100.00
19128;BME280;9696;53.686;10.094;2023-03-20T01:12:34;101421.88;;;9.01;100.00
19128;BME280;9696;53.686;10.094;2023-03-20T01:15:05;101421.00;;;9.13;100.00
19128;BME280;9696;53.686;10.094;2023-03-20T01:17:43;101428.34;;;8.95;100.00
19128;BME280;9696;53.686;10.094;2023-03-20T01:20:15;101415.16;;;9.09;100.00
19128;BME280;9696;53.686;10.094;2023-03-20T01:22:44;101421.88;;;9.01;100.00
19128;BME280;9696;53.686;10.094;2023-03-20T01:25:15;101417.34;;;9.03;100.00
19128;BME280;9696;53.686;10.094;2023-03-20T01:27:47;101419.66;;;8.94;100.00
19128;BME280;9696;53.686;10.094;2023-03-20T01:30:21;101420.72;;;9.05;100.00
19128;BME280;9696;53.686;10.094;2023-03-20T01:32:50;101420.91;;;9.02;100.00
19128;BME280;9696;53.686;10.094;2023-03-20T01:35:22;101420.41;;;8.96;100.00
19128;BME280;9696;53.686;10.094;2023-03-20T01:37:52;101417.78;;;8.84;100.00
19128;BME280;9696;53.686;10.094;2023-03-20T01:40:32;101420.06;;;9.01;100.00
19128;BME280;9696;53.686;10.094;2023-03-20T01:43:11;101423.53;;;9.02;100.00
19128;BME280;9696;53.686;10.094;2023-03-20T01:45:49;101433.19;;;8.88;100.00
19128;BME280;9696;53.686;10.094;2023-03-20T01:48:24;101435.88;;;8.74;100.00
19128;BME280;9696;53.686;10.094;2023-03-20T01:50:55;101438.28;;;8.65;100.00
19128;BME280;9696;53.686;10.094;2023-03-20T01:53:26;101441.25;;;8.46;100.00
19128;BME280;9696;53.686;10.094;2023-03-20T01:56:02;101439.69;;;8.43;100.00
19128;BME280;9696;53.686;10.094;2023-03-20T01:58:43;101443.59;;;8.50;100.00
19128;BME280;9696;53.686;10.094;2023-03-20T02:01:13;101442.75;;;8.37;100.00
19128;BME280;9696;53.686;10.094;2023-03-20T02:03:47;101438.53;;;8.35;100.00
19128;BME280;9696;53.686;10.094;2023-03-20T02:06:31;101438.03;;;8.16;100.00
19128;BME280;9696;53.686;10.094;2023-03-20T02:09:11;101443.06;;;8.19;100.00
19128;BME280;9696;53.686;10.094;2023-03-20T02:11:45;101445.28;;;8.25;100.00
19128;BME280;9696;53.686;10.094;2023-03-20T02:14:16;101432.25;;;8.11;100.00
19128;BME280;9696;53.686;10.094;2023-03-20T02:16:54;101432.38;;;8.09;100.00
19128;BME280;9696;53.686;10.094;2023-03-20T02:19:41;101436.50;;;7.99;100.00
19128;BME280;9696;53.686;10.094;2023-03-20T02:22:53;101443.34;;;7.87;100.00
19128;BME280;9696;53.686;10.094;2023-03-20T02:26:02;101434.44;;;7.77;100.00
19128;BME280;9696;53.686;10.094;2023-03-20T02:40:58;101435.22;;;7.65;100.00
19128;BME280;9696;53.686;10.094;2023-03-20T02:43:36;101435.78;;;7.70;100.00
19128;BME280;9696;53.686;10.094;2023-03-20T02:46:12;101432.19;;;7.85;100.00
19128;BME280;9696;53.686;10.094;2023-03-20T02:48:51;101425.00;;;7.75;100.00
19128;BME280;9696;53.686;10.094;2023-03-20T02:51:29;101422.53;;;7.59;100.00
19128;BME280;9696;53.686;10.094;2023-03-20T02:54:05;101428.09;;;7.67;100.00
19128;BME280;9696;53.686;10.094;2023-03-20T02:56:44;101421.75;;;7.71;100.00
19128;BME280;9696;53.686;10.094;2023-03-20T02:59:23;101426.19;;;7.56;100.00
19128;BME280;9696;53.686;10.094;2023-03-20T03:01:58;101423.72;;;7.68;100.00
19128;BME280;9696;53.686;10.094;2023-03-20T03:04:35;101414.16;;;7.54;100.00
19128;BME280;9696;53.686;10.094;2023-03-20T03:07:07;101418.69;;;7.65;100.00
19128;BME280;9696;53.686;10.094;2023-03-20T03:09:43;101419.28;;;7.55;100.00
19128;BME280;9696;53.686;10.094;2023-03-20T03:12:17;101424.28;;;7.58;100.00
19128;BME280;9696;53.686;10.094;2023-03-20T03:14:50;101413.47;;;7.65;100.00
19128;BME280;9696;53.686;10.094;2023-03-20T03:17:24;101410.94;;;7.63;100.00
19128;BME280;9696;53.686;10.094;2023-03-20T03:19:58;101414.25;;;7.52;100.00
19128;BME280;9696;53.686;10.094;2023-03-20T03:22:33;101413.19;;;7.69;100.00
19128;BME280;9696;53.686;10.094;2023-03-20T03:25:03;101409.81;;;7.67;100.00
19128;BME280;9696;53.686;10.094;2023-03-20T03:27:37;101406.91;;;7.45;100.00
19128;BME280;9696;53.686;10.094;2023-03-20T03:30:12;101404.09;;;7.48;100.00
19128;BME280;9696;53.686;10.094;2023-03-20T03:32:49;101402.41;;;7.47;100.00
19128;BME280;9696;53.686;10.094;2023-03-20T03:35:20;101397.19;;;7.47;100.00
19128;BME280;9696;53.686;10.094;2023-03-20T03:37:56;101399.78;;;7.61;100.00
19128;BME280;9696;53.686;10.094;2023-03-20T03:40:32;101401.47;;;7.48;100.00
19128;BME280;9696;53.686;10.094;2023-03-20T03:43:09;101400.34;;;7.52;100.00
19128;BME280;9696;53.686;10.094;2023-03-20T03:45:47;101400.63;;;7.47;100.00
19128;BME280;9696;53.686;10.094;2023-03-20T03:48:21;101394.84;;;7.56;100.00
19128;BME280;9696;53.686;10.094;2023-03-20T03:50:54;101389.22;;;7.63;100.00
19128;BME280;9696;53.686;10.094;2023-03-20T03:53:29;101391.97;;;7.47;100.00
19128;BME280;9696;53.686;10.094;2023-03-20T03:56:02;101397.22;;;7.33;100.00
19128;BME280;9696;53.686;10.094;2023-03-20T03:58:38;101396.03;;;7.38;100.00
19128;BME280;9696;53.686;10.094;2023-03-20T04:01:11;101403.25;;;7.47;100.00
19128;BME280;9696;53.686;10.094;2023-03-20T04:03:43;101401.47;;;7.48;100.00
19128;BME280;9696;53.686;10.094;2023-03-20T04:06:15;101401.69;;;7.45;100.00
19128;BME280;9696;53.686;10.094;2023-03-20T04:08:45;101405.97;;;7.32;100.00
19128;BME280;9696;53.686;10.094;2023-03-20T04:11:15;101405.91;;;7.33;100.00
19128;BME280;9696;53.686;10.094;2023-03-20T04:13:48;101396.47;;;7.45;100.00
19128;BME280;9696;53.686;10.094;2023-03-20T04:16:19;101396.53;;;7.43;100.00
19128;BME280;9696;53.686;10.094;2023-03-20T04:18:49;101398.03;;;7.47;100.00
19128;BME280;9696;53.686;10.094;2023-03-20T04:21:19;101394.28;;;7.51;100.00
19128;BME280;9696;53.686;10.094;2023-03-20T04:23:48;101397.88;;;7.36;100.00
19128;BME280;9696;53.686;10.094;2023-03-20T04:26:17;101390.13;;;7.35;100.00
19128;BME280;9696;53.686;10.094;2023-03-20T04:28:49;101391.72;;;7.37;100.00
19128;BME280;9696;53.686;10.094;2023-03-20T04:31:30;101393.78;;;7.32;100.00
19128;BME280;9696;53.686;10.094;2023-03-20T04:34:10;101386.06;;;7.31;100.00
19128;BME280;9696;53.686;10.094;2023-03-20T04:37:00;101389.13;;;7.37;100.00
19128;BME280;9696;53.686;10.094;2023-03-20T04:39:42;101383.50;;;7.43;100.00
19128;BME280;9696;53.686;10.094;2023-03-20T04:42:11;101386.09;;;7.43;100.00
19128;BME280;9696;53.686;10.094;2023-03-20T04:44:42;101390.66;;;7.54;100.00
19128;BME280;9696;53.686;10.094;2023-03-20T04:47:11;101384.66;;;7.25;100.00
19128;BME280;9696;53.686;10.094;2023-03-20T04:49:42;101385.03;;;7.33;100.00
19128;BME280;9696;53.686;10.094;2023-03-20T04:52:11;101385.88;;;7.34;100.00
19128;BME280;9696;53.686;10.094;2023-03-20T04:54:42;101390.31;;;7.46;100.00
19128;BME280;9696;53.686;10.094;2023-03-20T04:57:12;101385.88;;;7.34;100.00
19128;BME280;9696;53.686;10.094;2023-03-20T04:59:43;101382.56;;;7.44;100.00
19128;BME280;9696;53.686;10.094;2023-03-20T05:02:12;101386.88;;;7.45;100.00
19128;BME280;9696;53.686;10.094;2023-03-20T05:04:42;101389.06;;;7.51;100.00
19128;BME280;9696;53.686;10.094;2023-03-20T05:07:11;101395.72;;;7.43;100.00
19128;BME280;9696;53.686;10.094;2023-03-20T05:09:49;101386.56;;;7.50;100.00
19128;BME280;9696;53.686;10.094;2023-03-20T05:12:19;101395.72;;;7.43;100.00
19128;BME280;9696;53.686;10.094;2023-03-20T05:15:08;101388.13;;;7.26;100.00
19128;BME280;9696;53.686;10.094;2023-03-20T05:17:55;101395.25;;;7.36;100.00
19128;BME280;9696;53.686;10.094;2023-03-20T05:20:51;101391.94;;;7.34;100.00
19128;BME280;9696;53.686;10.094;2023-03-20T05:23:39;101384.66;;;7.25;100.00
19128;BME280;9696;53.686;10.094;2023-03-20T05:26:26;101386.38;;;7.39;100.00
19128;BME280;9696;53.686;10.094;2023-03-20T05:29:09;101395.72;;;7.43;100.00
19128;BME280;9696;53.686;10.094;2023-03-20T05:31:58;101394.06;;;7.42;100.00
19128;BME280;9696;53.686;10.094;2023-03-20T05:34:54;101397.94;;;7.35;100.00
19128;BME280;9696;53.686;10.094;2023-03-20T05:37:33;101398.88;;;7.48;100.00
19128;BME280;9696;53.686;10.094;2023-03-20T05:40:08;101408.47;;;7.47;100.00
19128;BME280;9696;53.686;10.094;2023-03-20T05:42:49;101404.66;;;7.39;100.00
19128;BME280;9696;53.686;10.094;2023-03-20T05:45:42;101409.44;;;7.32;100.00
19128;BME280;9696;53.686;10.094;2023-03-20T05:48:33;101412.13;;;7.45;100.00
19128;BME280;9696;53.686;10.094;2023-03-20T05:51:19;101418.00;;;7.48;100.00
19128;BME280;9696;53.686;10.094;2023-03-20T05:53:53;101413.69;;;7.47;100.00
19128;BME280;9696;53.686;10.094;2023-03-20T05:56:35;101430.84;;;7.51;100.00
19128;BME280;9696;53.686;10.094;2023-03-20T05:59:20;101430.75;;;7.53;100.00
19128;BME280;9696;53.686;10.094;2023-03-20T06:02:03;101428.31;;;7.64;100.00
19128;BME280;9696;53.686;10.094;2023-03-20T06:04:36;101430.00;;;7.51;100.00
19128;BME280;9696;53.686;10.094;2023-03-20T06:07:18;101422.84;;;7.54;100.00
19128;BME280;9696;53.686;10.094;2023-03-20T06:09:56;101423.97;;;7.50;100.00
19128;BME280;9696;53.686;10.094;2023-03-20T06:12:26;101420.31;;;7.39;100.00
19128;BME280;9696;53.686;10.094;2023-03-20T06:14:56;101432.19;;;7.30;100.00
19128;BME280;9696;53.686;10.094;2023-03-20T06:17:26;101427.63;;;7.34;100.00
19128;BME280;9696;53.686;10.094;2023-03-20T06:20:04;101442.13;;;7.52;100.00
19128;BME280;9696;53.686;10.094;2023-03-20T06:22:33;101438.25;;;7.31;100.00
19128;BME280;9696;53.686;10.094;2023-03-20T06:25:03;101432.81;;;7.20;100.00
19128;BME280;9696;53.686;10.094;2023-03-20T06:27:38;101437.59;;;7.41;100.00
19128;BME280;9696;53.686;10.094;2023-03-20T06:30:08;101441.03;;;7.42;100.00
19128;BME280;9696;53.686;10.094;2023-03-20T06:32:40;101439.53;;;7.38;100.00
19128;BME280;9696;53.686;10.094;2023-03-20T06:35:12;101439.06;;;7.45;100.00
19128;BME280;9696;53.686;10.094;2023-03-20T06:37:46;101446.06;;;7.45;100.00
19128;BME280;9696;53.686;10.094;2023-03-20T06:40:20;101438.91;;;7.34;100.00
19128;BME280;9696;53.686;10.094;2023-03-20T06:42:50;101435.16;;;7.38;100.00
19128;BME280;9696;53.686;10.094;2023-03-20T06:45:21;101440.47;;;7.37;100.00
19128;BME280;9696;53.686;10.094;2023-03-20T06:47:59;101440.56;;;7.49;100.00
19128;BME280;9696;53.686;10.094;2023-03-20T06:50:30;101445.78;;;7.49;100.00
19128;BME280;9696;53.686;10.094;2023-03-20T06:53:00;101439.16;;;7.44;100.00
19128;BME280;9696;53.686;10.094;2023-03-20T06:55:59;101442.97;;;7.52;100.00
19128;BME280;9696;53.686;10.094;2023-03-20T06:58:29;101443.53;;;7.57;100.00
19128;BME280;9696;53.686;10.094;2023-03-20T07:00:58;101436.78;;;7.68;100.00
19128;BME280;9696;53.686;10.094;2023-03-20T07:03:27;101450.31;;;7.60;100.00
19128;BME280;9696;53.686;10.094;2023-03-20T07:06:00;101447.97;;;7.70;100.00
19128;BME280;9696;53.686;10.094;2023-03-20T07:08:30;101451.25;;;7.59;100.00
19128;BME280;9696;53.686;10.094;2023-03-20T07:11:02;101445.84;;;7.62;100.00
19128;BME280;9696;53.686;10.094;2023-03-20T07:13:31;101447.91;;;7.57;100.00
19128;BME280;9696;53.686;10.094;2023-03-20T07:16:10;101452.94;;;7.60;100.00
19128;BME280;9696;53.686;10.094;2023-03-20T07:18:41;101454.97;;;7.69;100.00
19128;BME280;9696;53.686;10.094;2023-03-20T07:21:17;101454.97;;;7.69;100.00
19128;BME280;9696;53.686;10.094;2023-03-20T07:23:48;101454.03;;;7.70;100.00
19128;BME280;9696;53.686;10.094;2023-03-20T07:26:17;101449.53;;;7.72;100.00
19128;BME280;9696;53.686;10.094;2023-03-20T07:28:46;101451.38;;;7.84;100.00
19128;BME280;9696;53.686;10.094;2023-03-20T07:31:26;101457.31;;;7.74;100.00
19128;BME280;9696;53.686;10.094;2023-03-20T07:34:08;101466.38;;;7.95;100.00
19128;BME280;9696;53.686;10.094;2023-03-20T07:36:40;101459.72;;;7.77;100.00
19128;BME280;9696;53.686;10.094;2023-03-20T07:39:12;101456.34;;;7.75;100.00
19128;BME280;9696;53.686;10.094;2023-03-20T07:41:47;101460.47;;;7.65;100.00
19128;BME280;9696;53.686;10.094;2023-03-20T07:44:25;101454.19;;;7.81;100.00
19128;BME280;9696;53.686;10.094;2023-03-20T07:46:55;101461.84;;;7.84;100.00
19128;BME280;9696;53.686;10.094;2023-03-20T07:49:24;101463.31;;;7.88;100.00
19128;BME280;9696;53.686;10.094;2023-03-20T07:51:55;101460.22;;;7.96;100.00
19128;BME280;9696;53.686;10.094;2023-03-20T07:54:25;101462.56;;;7.86;100.00
19128;BME280;9696;53.686;10.094;2023-03-20T07:56:54;101459.72;;;8.03;100.00
19128;BME280;9696;53.686;10.094;2023-03-20T07:59:23;101464.88;;;7.91;100.00
19128;BME280;9696;53.686;10.094;2023-03-20T08:01:53;101463.09;;;8.05;100.00
19128;BME280;9696;53.686;10.094;2023-03-20T08:04:22;101451.09;;;8.42;100.00
19128;BME280;9696;53.686;10.094;2023-03-20T08:06:51;101460.50;;;8.18;100.00
19128;BME280;9696;53.686;10.094;2023-03-20T08:09:22;101451.81;;;8.32;100.00
19128;BME280;9696;53.686;10.094;2023-03-20T08:11:51;101456.22;;;8.17;100.00
19128;BME280;9696;53.686;10.094;2023-03-20T08:14:21;101460.22;;;8.23;100.00
19128;BME280;9696;53.686;10.094;2023-03-20T08:16:50;101462.97;;;8.34;100.00
19128;BME280;9696;53.686;10.094;2023-03-20T08:19:39;101477.03;;;8.45;100.00
19128;BME280;9696;53.686;10.094;2023-03-20T08:22:08;101471.38;;;8.39;100.00
19128;BME280;9696;53.686;10.094;2023-03-20T08:24:39;101484.00;;;8.32;100.00
19128;BME280;9696;53.686;10.094;2023-03-20T08:27:08;101485.50;;;8.22;100.00
19128;BME280;9696;53.686;10.094;2023-03-20T08:29:37;101480.81;;;8.27;100.00
19128;BME280;9696;53.686;10.094;2023-03-20T08:32:06;101484.78;;;8.47;100.00
19128;BME280;9696;53.686;10.094;2023-03-20T08:34:36;101491.47;;;8.24;100.00
19128;BME280;9696;53.686;10.094;2023-03-20T08:37:05;101487.41;;;8.47;100.00
19128;BME280;9696;53.686;10.094;2023-03-20T08:39:34;101497.50;;;8.39;100.00
19128;BME280;9696;53.686;10.094;2023-03-20T08:42:06;101487.69;;;8.42;100.00
19128;BME280;9696;53.686;10.094;2023-03-20T08:44:35;101485.88;;;8.57;100.00
19128;BME280;9696;53.686;10.094;2023-03-20T08:47:04;101482.28;;;8.58;100.00
19128;BME280;9696;53.686;10.094;2023-03-20T08:49:34;101489.53;;;8.67;100.00
19128;BME280;9696;53.686;10.094;2023-03-20T08:52:04;101484.19;;;8.56;100.00
19128;BME280;9696;53.686;10.094;2023-03-20T08:54:33;101488.41;;;8.32;100.00
19128;BME280;9696;53.686;10.094;2023-03-20T08:57:02;101481.44;;;8.45;100.00
19128;BME280;9696;53.686;10.094;2023-03-20T08:59:33;101482.84;;;8.63;100.00
19128;BME280;9696;53.686;10.094;2023-03-20T09:02:03;101480.88;;;8.79;100.00
19128;BME280;9696;53.686;10.094;2023-03-20T09:04:32;101476.03;;;8.61;100.00
19128;BME280;9696;53.686;10.094;2023-03-20T09:07:01;101479.63;;;8.72;100.00
19128;BME280;9696;53.686;10.094;2023-03-20T09:09:30;101486.94;;;8.80;100.00
19128;BME280;9696;53.686;10.094;2023-03-20T09:12:00;101478.78;;;8.97;100.00
19128;BME280;9696;53.686;10.094;2023-03-20T09:14:29;101476.50;;;8.92;100.00
19128;BME280;9696;53.686;10.094;2023-03-20T09:17:00;101486.22;;;8.90;100.00
19128;BME280;9696;53.686;10.094;2023-03-20T09:19:29;101478.38;;;8.90;100.00
19128;BME280;9696;53.686;10.094;2023-03-20T09:21:59;101475.22;;;8.98;100.00
19128;BME280;9696;53.686;10.094;2023-03-20T09:24:28;101481.53;;;8.95;100.00
19128;BME280;9696;53.686;10.094;2023-03-20T09:26:58;101483.50;;;8.92;100.00
19128;BME280;9696;53.686;10.094;2023-03-20T09:29:30;101473.56;;;9.10;100.00
19128;BME280;9696;53.686;10.094;2023-03-20T09:32:01;101485.59;;;8.99;100.00
19128;BME280;9696;53.686;10.094;2023-03-20T09:34:30;101486.31;;;9.02;100.00
19128;BME280;9696;53.686;10.094;2023-03-20T09:36:59;101489.25;;;9.10;100.00
19128;BME280;9696;53.686;10.094;2023-03-20T09:39:30;101489.69;;;9.16;100.00
19128;BME280;9696;53.686;10.094;2023-03-20T09:42:01;101485.94;;;9.20;100.00
19128;BME280;9696;53.686;10.094;2023-03-20T09:44:44;101487.28;;;9.01;100.00
19128;BME280;9696;53.686;10.094;2023-03-20T09:47:25;101491.75;;;9.36;100.00
19128;BME280;9696;53.686;10.094;2023-03-20T09:50:25;101508.63;;;9.07;100.00
19128;BME280;9696;53.686;10.094;2023-03-20T09:52:59;101497.66;;;9.15;100.00
19128;BME280;9696;53.686;10.094;2023-03-20T09:55:36;101498.06;;;9.21;100.00
19128;BME280;9696;53.686;10.094;2023-03-20T09:58:12;101509.81;;;9.16;100.00
19128;BME280;9696;53.686;10.094;2023-03-20T10:00:45;101503.81;;;9.26;100.00
19128;BME280;9696;53.686;10.094;2023-03-20T10:03:19;101504.34;;;9.19;100.00
19128;BME280;9696;53.686;10.094;2023-03-20T10:05:55;101500.66;;;9.21;100.00
19128;BME280;9696;53.686;10.094;2023-03-20T10:08:29;101497.94;;;9.10;100.00
19128;BME280;9696;53.686;10.094;2023-03-20T10:11:06;101498.59;;;9.39;100.00
19128;BME280;9696;53.686;10.094;2023-03-20T10:13:50;101507.91;;;9.43;100.00
19128;BME280;9696;53.686;10.094;2023-03-20T10:16:39;101502.53;;;9.44;100.00
19128;BME280;9696;53.686;10.094;2023-03-20T10:19:20;101501.59;;;9.45;100.00
19128;BME280;9696;53.686;10.094;2023-03-20T10:21:55;101493.88;;;9.31;100.00
19128;BME280;9696;53.686;10.094;2023-03-20T10:24:28;101485.06;;;9.32;100.00
19128;BME280;9696;53.686;10.094;2023-03-20T10:27:04;101481.31;;;9.24;100.00
19128;BME280;9696;53.686;10.094;2023-03-20T10:29:44;101485.06;;;9.32;100.00
19128;BME280;9696;53.686;10.094;2023-03-20T10:32:23;101487.81;;;9.18;100.00
19128;BME280;9696;53.686;10.094;2023-03-20T10:35:04;101489.78;;;9.15;100.00
19128;BME280;9696;53.686;10.094;2023-03-20T10:37:50;101488.41;;;9.47;100.00
19128;BME280;9696;53.686;10.094;2023-03-20T10:40:26;101490.09;;;9.35;100.00
19128;BME280;9696;53.686;10.094;2023-03-20T10:43:00;101467.47;;;9.09;100.00
19128;BME280;9696;53.686;10.094;2023-03-20T10:45:36;101484.66;;;9.38;100.00
19128;BME280;9696;53.686;10.094;2023-03-20T10:48:14;101477.72;;;9.37;100.00
19128;BME280;9696;53.686;10.094;2023-03-20T10:50:48;101475.72;;;9.54;100.00
19128;BME280;9696;53.686;10.094;2023-03-20T10:53:33;101473.34;;;9.13;100.00
19128;BME280;9696;53.686;10.094;2023-03-20T10:56:07;101472.09;;;9.31;100.00
19128;BME280;9696;53.686;10.094;2023-03-20T10:58:40;101474.69;;;9.43;100.00
19128;BME280;9696;53.686;10.094;2023-03-20T11:01:11;101471.22;;;9.92;100.00
19128;BME280;9696;53.686;10.094;2023-03-20T11:03:41;101474.25;;;9.50;100.00
19128;BME280;9696;53.686;10.094;2023-03-20T11:06:16;101464.22;;;9.43;100.00
19128;BME280;9696;53.686;10.094;2023-03-20T11:08:49;101468.50;;;9.44;100.00
19128;BME280;9696;53.686;10.094;2023-03-20T11:11:23;101469.25;;;9.21;100.00
19128;BME280;9696;53.686;10.094;2023-03-20T11:13:54;101463.25;;;9.44;100.00
19128;BME280;9696;53.686;10.094;2023-03-20T11:16:28;101460.44;;;10.08;100.00
19128;BME280;9696;53.686;10.094;2023-03-20T11:19:04;101464.41;;;9.40;100.00
19128;BME280;9696;53.686;10.094;2023-03-20T11:21:43;101463.66;;;9.64;100.00
19128;BME280;9696;53.686;10.094;2023-03-20T11:24:24;101458.66;;;9.84;100.00
19128;BME280;9696;53.686;10.094;2023-03-20T11:26:56;101457.94;;;9.82;100.00
19128;BME280;9696;53.686;10.094;2023-03-20T11:29:33;101460.25;;;9.87;100.00
19128;BME280;9696;53.686;10.094;2023-03-20T11:32:04;101456.88;;;9.85;100.00
19128;BME280;9696;53.686;10.094;2023-03-20T11:34:37;101459.22;;;9.77;100.00
19128;BME280;9696;53.686;10.094;2023-03-20T11:37:22;101448.13;;;9.73;100.00
19128;BME280;9696;53.686;10.094;2023-03-20T11:39:55;101445.56;;;10.08;100.00
19128;BME280;9696;53.686;10.094;2023-03-20T11:42:27;101454.97;;;9.63;100.00
19128;BME280;9696;53.686;10.094;2023-03-20T11:44:59;101450.31;;;9.79;100.00
19128;BME280;9696;53.686;10.094;2023-03-20T11:47:32;101444.38;;;9.88;100.00
19128;BME280;9696;53.686;10.094;2023-03-20T11:50:03;101444.66;;;9.73;100.00
19128;BME280;9696;53.686;10.094;2023-03-20T11:52:38;101446.66;;;9.69;100.00
19128;BME280;9696;53.686;10.094;2023-03-20T11:55:23;101452.47;;;9.49;100.00
19128;BME280;9696;53.686;10.094;2023-03-20T11:57:56;101448.66;;;9.66;100.00
19128;BME280;9696;53.686;10.094;2023-03-20T12:00:27;101449.22;;;9.45;100.00
19128;BME280;9696;53.686;10.094;2023-03-20T12:02:57;101451.94;;;9.93;100.00
19128;BME280;9696;53.686;10.094;2023-03-20T12:05:32;101443.06;;;9.83;100.00
19128;BME280;9696;53.686;10.094;2023-03-20T12:08:08;101446.41;;;9.85;100.00
19128;BME280;9696;53.686;10.094;2023-03-20T12:10:42;101449.22;;;9.94;100.00
19128;BME280;9696;53.686;10.094;2023-03-20T12:13:16;101439.19;;;9.76;100.00
19128;BME280;9696;53.686;10.094;2023-03-20T12:15:53;101442.59;;;9.65;100.00
19128;BME280;9696;53.686;10.094;2023-03-20T12:18:27;101438.69;;;10.07;100.00
19128;BME280;9696;53.686;10.094;2023-03-20T12:21:06;101447.69;;;9.79;100.00
19128;BME280;9696;53.686;10.094;2023-03-20T12:23:41;101437.22;;;10.03;100.00
19128;BME280;9696;53.686;10.094;2023-03-20T12:26:13;101443.50;;;10.01;100.00
19128;BME280;9696;53.686;10.094;2023-03-20T12:28:49;101442.34;;;10.05;100.00
19128;BME280;9696;53.686;10.094;2023-03-20T12:31:24;101446.13;;;10.01;100.00
19128;BME280;9696;53.686;10.094;2023-03-20T12:33:57;101440.13;;;10.11;100.00
19128;BME280;9696;53.686;10.094;2023-03-20T12:36:31;101433.91;;;10.12;100.00
19128;BME280;9696;53.686;10.094;2023-03-20T12:39:05;101440.59;;;9.92;100.00
19128;BME280;9696;53.686;10.094;2023-03-20T12:41:40;101439.63;;;10.06;100.00
19128;BME280;9696;53.686;10.094;2023-03-20T12:44:28;101432.19;;;10.00;100.00
19128;BME280;9696;53.686;10.094;2023-03-20T12:47:08;101437.94;;;10.05;100.00
19128;BME280;9696;53.686;10.094;2023-03-20T12:49:47;101430.53;;;10.47;100.00
19128;BME280;9696;53.686;10.094;2023-03-20T12:52:26;101429.34;;;10.51;100.00
19128;BME280;9696;53.686;10.094;2023-03-20T12:55:21;101424.88;;;10.97;100.00
19128;BME280;9696;53.686;10.094;2023-03-20T12:58:04;101431.81;;;11.09;100.00
19128;BME280;9696;53.686;10.094;2023-03-20T13:00:40;101413.28;;;11.11;100.00
19128;BME280;9696;53.686;10.094;2023-03-20T13:03:27;101414.97;;;11.34;100.00
19128;BME280;9696;53.686;10.094;2023-03-20T13:06:01;101413.63;;;11.51;100.00
19128;BME280;9696;53.686;10.094;2023-03-20T13:11:44;101404.47;;;11.23;100.00
19128;BME280;9696;53.686;10.094;2023-03-20T13:14:22;101409.97;;;11.09;100.00
19128;BME280;9696;53.686;10.094;2023-03-20T13:16:56;101400.28;;;10.76;100.00
19128;BME280;9696;53.686;10.094;2023-03-20T13:19:33;101395.53;;;10.92;100.00
19128;BME280;9696;53.686;10.094;2023-03-20T13:22:07;101401.13;;;10.87;100.00
19128;BME280;9696;53.686;10.094;2023-03-20T13:24:42;101398.72;;;10.73;100.00
19128;BME280;9696;53.686;10.094;2023-03-20T13:27:28;101399.75;;;10.60;100.00
19128;BME280;9696;53.686;10.094;2023-03-20T13:30:02;101392.25;;;10.55;100.00
19128;BME280;9696;53.686;10.094;2023-03-20T13:32:40;101392.84;;;10.59;100.00
19128;BME280;9696;53.686;10.094;2023-03-20T13:35:27;101380.78;;;10.45;100.00
19128;BME280;9696;53.686;10.094;2023-03-20T13:38:02;101391.03;;;10.48;100.00
19128;BME280;9696;53.686;10.094;2023-03-20T13:40:38;101387.72;;;10.57;100.00
19128;BME280;9696;53.686;10.094;2023-03-20T13:43:23;101392.41;;;10.76;100.00